sensor_id;sensor_type;location;lat;lon;timestamp;P1;durP1;ratioP1;P2;durP2;ratioP2
51921;SDS011;37948;53.260;6.394;2023-04-09T00:01:04;72.05;;;42.55;;
51921;SDS011;37948;53.260;6.394;2023-04-09T00:03:32;74.50;;;42.97;;
51921;SDS011;37948;53.260;6.394;2023-04-09T00:05:58;72.75;;;42.30;;
51921;SDS011;37948;53.260;6.394;2023-04-09T00:08:23;77.30;;;44.25;;
51921;SDS011;37948;53.260;6.394;2023-04-09T00:10:50;75.93;;;43.67;;
51921;SDS011;37948;53.260;6.394;2023-04-09T00:13:16;79.20;;;44.92;;
51921;SDS011;37948;53.260;6.394;2023-04-09T00:15:42;75.45;;;44.70;;
51921;SDS011;37948;53.260;6.394;2023-04-09T00:18:08;80.63;;;45.40;;
51921;SDS011;37948;53.260;6.394;2023-04-09T00:20:33;75.05;;;46.08;;
51921;SDS011;37948;53.260;6.394;2023-04-09T00:22:59;81.38;;;45.88;;
51921;SDS011;37948;53.260;6.394;2023-04-09T00:25:25;89.55;;;48.25;;
51921;SDS011;37948;53.260;6.394;2023-04-09T00:27:52;83.72;;;48.00;;
51921;SDS011;37948;53.260;6.394;2023-04-09T00:30:18;87.35;;;49.88;;
51921;SDS011;37948;53.260;6.394;2023-04-09T00:32:44;93.65;;;49.70;;
51921;SDS011;37948;53.260;6.394;2023-04-09T00:35:10;96.03;;;51.75;;
51921;SDS011;37948;53.260;6.394;2023-04-09T00:37:36;87.70;;;46.65;;
51921;SDS011;37948;53.260;6.394;2023-04-09T00:40:01;93.65;;;49.63;;
51921;SDS011;37948;53.260;6.394;2023-04-09T00:42:31;89.15;;;49.70;;
51921;SDS011;37948;53.260;6.394;2023-04-09T00:44:57;87.53;;;47.33;;
51921;SDS011;37948;53.260;6.394;2023-04-09T00:47:23;89.53;;;46.45;;
51921;SDS011;37948;53.260;6.394;2023-04-09T00:49:49;81.47;;;44.47;;
51921;SDS011;37948;53.260;6.394;2023-04-09T00:52:15;82.72;;;44.53;;
51921;SDS011;37948;53.260;6.394;2023-04-09T00:54:41;77.20;;;41.65;;
51921;SDS011;37948;53.260;6.394;2023-04-09T00:57:06;75.88;;;42.20;;
51921;SDS011;37948;53.260;6.394;2023-04-09T00:59:32;73.32;;;40.60;;
51921;SDS011;37948;53.260;6.394;2023-04-09T01:01:58;71.88;;;38.92;;
51921;SDS011;37948;53.260;6.394;2023-04-09T01:04:23;68.90;;;38.67;;
51921;SDS011;37948;53.260;6.394;2023-04-09T01:06:50;71.18;;;39.20;;
51921;SDS011;37948;53.260;6.394;2023-04-09T01:09:23;69.10;;;38.05;;
51921;SDS011;37948;53.260;6.394;2023-04-09T01:11:58;80.43;;;38.22;;
51921;SDS011;37948;53.260;6.394;2023-04-09T01:14:48;68.75;;;38.13;;
51921;SDS011;37948;53.260;6.394;2023-04-09T01:17:25;68.80;;;36.92;;
51921;SDS011;37948;53.260;6.394;2023-04-09T01:20:00;65.05;;;36.42;;
51921;SDS011;37948;53.260;6.394;2023-04-09T01:25:28;64.07;;;33.47;;
51921;SDS011;37948;53.260;6.394;2023-04-09T01:28:38;55.45;;;32.30;;
51921;SDS011;37948;53.260;6.394;2023-04-09T01:31:10;58.22;;;33.17;;
51921;SDS011;37948;53.260;6.394;2023-04-09T01:33:39;60.97;;;31.05;;
51921;SDS011;37948;53.260;6.394;2023-04-09T01:36:06;52.10;;;30.98;;
51921;SDS011;37948;53.260;6.394;2023-04-09T01:38:33;51.75;;;31.60;;
51921;SDS011;37948;53.260;6.394;2023-04-09T01:41:00;53.92;;;30.80;;
51921;SDS011;37948;53.260;6.394;2023-04-09T01:43:27;58.95;;;31.10;;
51921;SDS011;37948;53.260;6.394;2023-04-09T01:45:54;56.28;;;30.35;;
51921;SDS011;37948;53.260;6.394;2023-04-09T01:48:21;59.13;;;30.65;;
51921;SDS011;37948;53.260;6.394;2023-04-09T01:50:48;53.17;;;30.27;;
51921;SDS011;37948;53.260;6.394;2023-04-09T01:53:14;54.50;;;30.40;;
51921;SDS011;37948;53.260;6.394;2023-04-09T01:55:40;51.95;;;30.45;;
51921;SDS011;37948;53.260;6.394;2023-04-09T01:58:06;50.95;;;27.58;;
51921;SDS011;37948;53.260;6.394;2023-04-09T02:00:35;50.47;;;29.20;;
51921;SDS011;37948;53.260;6.394;2023-04-09T02:03:07;49.78;;;28.25;;
51921;SDS011;37948;53.260;6.394;2023-04-09T02:05:40;54.42;;;31.60;;
51921;SDS011;37948;53.260;6.394;2023-04-09T02:08:10;51.00;;;28.40;;
51921;SDS011;37948;53.260;6.394;2023-04-09T02:10:38;55.95;;;28.10;;
51921;SDS011;37948;53.260;6.394;2023-04-09T02:13:04;50.15;;;29.23;;
51921;SDS011;37948;53.260;6.394;2023-04-09T02:15:33;50.42;;;28.45;;
51921;SDS011;37948;53.260;6.394;2023-04-09T02:18:03;51.90;;;28.02;;
51921;SDS011;37948;53.260;6.394;2023-04-09T02:20:28;46.72;;;27.55;;
51921;SDS011;37948;53.260;6.394;2023-04-09T02:22:54;47.67;;;26.42;;
51921;SDS011;37948;53.260;6.394;2023-04-09T02:25:21;43.55;;;25.15;;
51921;SDS011;37948;53.260;6.394;2023-04-09T02:27:47;46.13;;;25.67;;
51921;SDS011;37948;53.260;6.394;2023-04-09T02:30:12;42.90;;;24.58;;
51921;SDS011;37948;53.260;6.394;2023-04-09T02:32:38;43.00;;;24.77;;
51921;SDS011;37948;53.260;6.394;2023-04-09T02:35:03;40.92;;;24.30;;
51921;SDS011;37948;53.260;6.394;2023-04-09T02:37:30;42.80;;;25.30;;
51921;SDS011;37948;53.260;6.394;2023-04-09T02:39:55;44.38;;;25.55;;
51921;SDS011;37948;53.260;6.394;2023-04-09T02:42:23;42.17;;;24.90;;
51921;SDS011;37948;53.260;6.394;2023-04-09T02:44:49;42.10;;;25.17;;
51921;SDS011;37948;53.260;6.394;2023-04-09T02:47:14;45.78;;;26.13;;
51921;SDS011;37948;53.260;6.394;2023-04-09T02:49:40;45.55;;;23.77;;
51921;SDS011;37948;53.260;6.394;2023-04-09T02:52:05;37.65;;;23.63;;
51921;SDS011;37948;53.260;6.394;2023-04-09T02:54:33;39.08;;;22.90;;
51921;SDS011;37948;53.260;6.394;2023-04-09T02:56:59;39.80;;;23.23;;
51921;SDS011;37948;53.260;6.394;2023-04-09T02:59:25;41.67;;;23.60;;
51921;SDS011;37948;53.260;6.394;2023-04-09T03:01:50;40.50;;;23.50;;
51921;SDS011;37948;53.260;6.394;2023-04-09T03:04:16;41.75;;;25.00;;
51921;SDS011;37948;53.260;6.394;2023-04-09T03:06:42;41.42;;;22.48;;
51921;SDS011;37948;53.260;6.394;2023-04-09T03:09:07;39.17;;;23.38;;
51921;SDS011;37948;53.260;6.394;2023-04-09T03:11:33;38.28;;;23.17;;
51921;SDS011;37948;53.260;6.394;2023-04-09T03:13:58;37.95;;;22.25;;
51921;SDS011;37948;53.260;6.394;2023-04-09T03:16:24;40.67;;;23.25;;
51921;SDS011;37948;53.260;6.394;2023-04-09T03:18:50;39.10;;;22.88;;
51921;SDS011;37948;53.260;6.394;2023-04-09T03:21:15;36.88;;;22.25;;
51921;SDS011;37948;53.260;6.394;2023-04-09T03:23:41;40.08;;;23.15;;
51921;SDS011;37948;53.260;6.394;2023-04-09T03:26:06;41.50;;;21.48;;
51921;SDS011;37948;53.260;6.394;2023-04-09T03:28:32;37.40;;;22.27;;
51921;SDS011;37948;53.260;6.394;2023-04-09T03:30:58;40.65;;;23.65;;
51921;SDS011;37948;53.260;6.394;2023-04-09T03:33:23;40.63;;;22.70;;
51921;SDS011;37948;53.260;6.394;2023-04-09T03:35:52;39.55;;;23.60;;
51921;SDS011;37948;53.260;6.394;2023-04-09T03:38:17;37.78;;;22.38;;
51921;SDS011;37948;53.260;6.394;2023-04-09T03:40:43;37.25;;;22.45;;
51921;SDS011;37948;53.260;6.394;2023-04-09T03:43:09;39.95;;;23.05;;
51921;SDS011;37948;53.260;6.394;2023-04-09T03:45:34;39.08;;;23.33;;
51921;SDS011;37948;53.260;6.394;2023-04-09T03:48:00;36.63;;;22.33;;
51921;SDS011;37948;53.260;6.394;2023-04-09T03:50:25;36.53;;;21.58;;
51921;SDS011;37948;53.260;6.394;2023-04-09T03:52:51;36.53;;;22.30;;
51921;SDS011;37948;53.260;6.394;2023-04-09T03:55:17;34.85;;;21.17;;
51921;SDS011;37948;53.260;6.394;2023-04-09T03:57:42;34.42;;;21.60;;
51921;SDS011;37948;53.260;6.394;2023-04-09T04:00:08;37.20;;;22.50;;
51921;SDS011;37948;53.260;6.394;2023-04-09T04:02:34;34.33;;;20.98;;
51921;SDS011;37948;53.260;6.394;2023-04-09T04:04:59;36.10;;;21.63;;
51921;SDS011;37948;53.260;6.394;2023-04-09T04:07:25;33.72;;;22.27;;
51921;SDS011;37948;53.260;6.394;2023-04-09T04:09:51;40.55;;;23.27;;
51921;SDS011;37948;53.260;6.394;2023-04-09T04:12:16;34.90;;;21.30;;
51921;SDS011;37948;53.260;6.394;2023-04-09T04:14:42;37.22;;;21.70;;
51921;SDS011;37948;53.260;6.394;2023-04-09T04:17:09;35.83;;;21.05;;
51921;SDS011;37948;53.260;6.394;2023-04-09T04:19:35;35.13;;;21.33;;
51921;SDS011;37948;53.260;6.394;2023-04-09T04:22:00;36.08;;;21.48;;
51921;SDS011;37948;53.260;6.394;2023-04-09T04:24:26;41.65;;;21.50;;
51921;SDS011;37948;53.260;6.394;2023-04-09T04:26:51;35.67;;;20.63;;
51921;SDS011;37948;53.260;6.394;2023-04-09T04:29:17;35.35;;;20.88;;
51921;SDS011;37948;53.260;6.394;2023-04-09T04:31:42;36.08;;;22.10;;
51921;SDS011;37948;53.260;6.394;2023-04-09T04:34:08;33.55;;;20.10;;
51921;SDS011;37948;53.260;6.394;2023-04-09T04:36:34;38.58;;;22.42;;
51921;SDS011;37948;53.260;6.394;2023-04-09T04:39:01;34.28;;;21.17;;
51921;SDS011;37948;53.260;6.394;2023-04-09T04:41:26;36.67;;;20.67;;
51921;SDS011;37948;53.260;6.394;2023-04-09T04:43:53;34.33;;;20.88;;
51921;SDS011;37948;53.260;6.394;2023-04-09T04:46:19;37.03;;;22.67;;
51921;SDS011;37948;53.260;6.394;2023-04-09T04:48:44;34.88;;;20.88;;
51921;SDS011;37948;53.260;6.394;2023-04-09T04:51:10;33.25;;;21.17;;
51921;SDS011;37948;53.260;6.394;2023-04-09T04:53:35;42.63;;;21.70;;
51921;SDS011;37948;53.260;6.394;2023-04-09T04:56:01;35.95;;;20.85;;
51921;SDS011;37948;53.260;6.394;2023-04-09T04:58:27;36.67;;;22.02;;
51921;SDS011;37948;53.260;6.394;2023-04-09T05:00:53;40.00;;;22.67;;
51921;SDS011;37948;53.260;6.394;2023-04-09T05:03:18;38.72;;;22.77;;
51921;SDS011;37948;53.260;6.394;2023-04-09T05:05:44;37.53;;;22.27;;
51921;SDS011;37948;53.260;6.394;2023-04-09T05:08:10;35.88;;;22.05;;
51921;SDS011;37948;53.260;6.394;2023-04-09T05:10:36;39.65;;;23.45;;
51921;SDS011;37948;53.260;6.394;2023-04-09T05:13:04;41.72;;;22.23;;
51921;SDS011;37948;53.260;6.394;2023-04-09T05:15:29;41.08;;;23.17;;
51921;SDS011;37948;53.260;6.394;2023-04-09T05:17:55;37.28;;;23.25;;
51921;SDS011;37948;53.260;6.394;2023-04-09T05:20:22;35.72;;;22.60;;
51921;SDS011;37948;53.260;6.394;2023-04-09T05:22:47;42.13;;;23.52;;
51921;SDS011;37948;53.260;6.394;2023-04-09T05:25:13;44.00;;;23.67;;
51921;SDS011;37948;53.260;6.394;2023-04-09T05:27:40;36.33;;;22.55;;
51921;SDS011;37948;53.260;6.394;2023-04-09T05:30:05;36.88;;;23.25;;
51921;SDS011;37948;53.260;6.394;2023-04-09T05:32:31;41.40;;;23.65;;
51921;SDS011;37948;53.260;6.394;2023-04-09T05:34:57;38.15;;;21.88;;
51921;SDS011;37948;53.260;6.394;2023-04-09T05:37:23;39.45;;;23.25;;
51921;SDS011;37948;53.260;6.394;2023-04-09T05:39:49;43.47;;;24.02;;
51921;SDS011;37948;53.260;6.394;2023-04-09T05:42:14;38.03;;;22.58;;
51921;SDS011;37948;53.260;6.394;2023-04-09T05:44:40;36.70;;;22.23;;
51921;SDS011;37948;53.260;6.394;2023-04-09T05:47:06;40.58;;;22.98;;
51921;SDS011;37948;53.260;6.394;2023-04-09T05:49:31;38.75;;;24.70;;
51921;SDS011;37948;53.260;6.394;2023-04-09T05:51:57;38.78;;;24.73;;
51921;SDS011;37948;53.260;6.394;2023-04-09T05:54:22;39.85;;;24.10;;
51921;SDS011;37948;53.260;6.394;2023-04-09T05:56:48;45.22;;;23.15;;
51921;SDS011;37948;53.260;6.394;2023-04-09T05:59:13;40.70;;;23.95;;
51921;SDS011;37948;53.260;6.394;2023-04-09T06:01:39;43.35;;;24.80;;
51921;SDS011;37948;53.260;6.394;2023-04-09T06:04:05;40.20;;;24.05;;
51921;SDS011;37948;53.260;6.394;2023-04-09T06:06:30;41.47;;;23.73;;
51921;SDS011;37948;53.260;6.394;2023-04-09T06:08:56;39.15;;;24.13;;
51921;SDS011;37948;53.260;6.394;2023-04-09T06:11:22;37.97;;;23.92;;
51921;SDS011;37948;53.260;6.394;2023-04-09T06:13:47;41.50;;;23.45;;
51921;SDS011;37948;53.260;6.394;2023-04-09T06:16:13;38.50;;;23.00;;
51921;SDS011;37948;53.260;6.394;2023-04-09T06:18:38;33.83;;;21.70;;
51921;SDS011;37948;53.260;6.394;2023-04-09T06:21:06;33.47;;;22.40;;
51921;SDS011;37948;53.260;6.394;2023-04-09T06:23:33;40.20;;;22.63;;
51921;SDS011;37948;53.260;6.394;2023-04-09T06:26:00;38.08;;;21.92;;
51921;SDS011;37948;53.260;6.394;2023-04-09T06:28:29;35.33;;;21.92;;
51921;SDS011;37948;53.260;6.394;2023-04-09T06:30:55;32.15;;;20.63;;
51921;SDS011;37948;53.260;6.394;2023-04-09T06:33:22;37.78;;;21.70;;
51921;SDS011;37948;53.260;6.394;2023-04-09T06:35:48;36.65;;;22.73;;
51921;SDS011;37948;53.260;6.394;2023-04-09T06:38:14;34.13;;;21.20;;
51921;SDS011;37948;53.260;6.394;2023-04-09T06:40:40;33.45;;;21.63;;
51921;SDS011;37948;53.260;6.394;2023-04-09T06:43:06;29.30;;;18.80;;
51921;SDS011;37948;53.260;6.394;2023-04-09T06:45:32;29.83;;;19.08;;
51921;SDS011;37948;53.260;6.394;2023-04-09T06:47:58;27.20;;;17.95;;
51921;SDS011;37948;53.260;6.394;2023-04-09T06:50:25;26.75;;;17.85;;
51921;SDS011;37948;53.260;6.394;2023-04-09T06:52:51;29.50;;;19.58;;
51921;SDS011;37948;53.260;6.394;2023-04-09T06:55:21;30.73;;;19.38;;
51921;SDS011;37948;53.260;6.394;2023-04-09T06:57:47;28.08;;;19.30;;
51921;SDS011;37948;53.260;6.394;2023-04-09T07:00:13;27.10;;;18.30;;
51921;SDS011;37948;53.260;6.394;2023-04-09T07:02:38;29.85;;;19.77;;
51921;SDS011;37948;53.260;6.394;2023-04-09T07:05:04;27.60;;;18.17;;
51921;SDS011;37948;53.260;6.394;2023-04-09T07:07:30;31.52;;;18.77;;
51921;SDS011;37948;53.260;6.394;2023-04-09T07:09:56;28.50;;;17.77;;
51921;SDS011;37948;53.260;6.394;2023-04-09T07:12:28;29.48;;;18.88;;
51921;SDS011;37948;53.260;6.394;2023-04-09T07:14:58;27.27;;;17.30;;
51921;SDS011;37948;53.260;6.394;2023-04-09T07:17:25;29.38;;;18.85;;
51921;SDS011;37948;53.260;6.394;2023-04-09T07:19:51;29.02;;;19.65;;
51921;SDS011;37948;53.260;6.394;2023-04-09T07:22:19;31.75;;;20.50;;
51921;SDS011;37948;53.260;6.394;2023-04-09T07:24:45;33.20;;;19.50;;
51921;SDS011;37948;53.260;6.394;2023-04-09T07:27:17;28.43;;;19.23;;
51921;SDS011;37948;53.260;6.394;2023-04-09T07:29:46;29.38;;;18.65;;
51921;SDS011;37948;53.260;6.394;2023-04-09T07:32:12;33.08;;;19.55;;
51921;SDS011;37948;53.260;6.394;2023-04-09T07:34:37;30.10;;;20.42;;
51921;SDS011;37948;53.260;6.394;2023-04-09T07:37:03;30.42;;;19.42;;
51921;SDS011;37948;53.260;6.394;2023-04-09T07:39:29;34.05;;;20.85;;
51921;SDS011;37948;53.260;6.394;2023-04-09T07:41:55;37.65;;;21.58;;
51921;SDS011;37948;53.260;6.394;2023-04-09T07:44:21;33.50;;;21.23;;
51921;SDS011;37948;53.260;6.394;2023-04-09T07:46:47;31.23;;;20.38;;
51921;SDS011;37948;53.260;6.394;2023-04-09T07:49:13;32.22;;;20.83;;
51921;SDS011;37948;53.260;6.394;2023-04-09T07:51:38;36.72;;;22.33;;
51921;SDS011;37948;53.260;6.394;2023-04-09T07:54:04;33.00;;;21.80;;
51921;SDS011;37948;53.260;6.394;2023-04-09T07:56:29;40.72;;;22.25;;
51921;SDS011;37948;53.260;6.394;2023-04-09T07:58:55;31.90;;;20.20;;
51921;SDS011;37948;53.260;6.394;2023-04-09T08:01:21;33.20;;;22.08;;
51921;SDS011;37948;53.260;6.394;2023-04-09T08:03:48;33.88;;;22.42;;
51921;SDS011;37948;53.260;6.394;2023-04-09T08:06:14;27.27;;;19.98;;
51921;SDS011;37948;53.260;6.394;2023-04-09T08:08:41;35.13;;;21.40;;
51921;SDS011;37948;53.260;6.394;2023-04-09T08:11:06;34.90;;;21.70;;
51921;SDS011;37948;53.260;6.394;2023-04-09T08:13:32;34.15;;;19.50;;
51921;SDS011;37948;53.260;6.394;2023-04-09T08:16:01;36.45;;;20.55;;
51921;SDS011;37948;53.260;6.394;2023-04-09T08:18:27;30.40;;;20.17;;
51921;SDS011;37948;53.260;6.394;2023-04-09T08:20:54;31.73;;;20.73;;
51921;SDS011;37948;53.260;6.394;2023-04-09T08:23:20;37.05;;;21.33;;
51921;SDS011;37948;53.260;6.394;2023-04-09T08:25:45;32.65;;;21.23;;
51921;SDS011;37948;53.260;6.394;2023-04-09T08:28:11;31.50;;;20.58;;
51921;SDS011;37948;53.260;6.394;2023-04-09T08:30:37;32.47;;;21.17;;
51921;SDS011;37948;53.260;6.394;2023-04-09T08:33:02;36.35;;;21.88;;
51921;SDS011;37948;53.260;6.394;2023-04-09T08:35:31;34.85;;;21.52;;
51921;SDS011;37948;53.260;6.394;2023-04-09T08:37:57;36.00;;;21.10;;
51921;SDS011;37948;53.260;6.394;2023-04-09T08:40:23;34.38;;;22.15;;
51921;SDS011;37948;53.260;6.394;2023-04-09T08:42:53;35.90;;;22.08;;
51921;SDS011;37948;53.260;6.394;2023-04-09T08:45:23;39.80;;;21.77;;
51921;SDS011;37948;53.260;6.394;2023-04-09T08:47:49;37.95;;;22.85;;
51921;SDS011;37948;53.260;6.394;2023-04-09T08:50:15;34.45;;;21.35;;
51921;SDS011;37948;53.260;6.394;2023-04-09T08:52:41;34.97;;;22.23;;
51921;SDS011;37948;53.260;6.394;2023-04-09T08:55:10;33.67;;;21.63;;
51921;SDS011;37948;53.260;6.394;2023-04-09T08:57:36;35.83;;;22.27;;
51921;SDS011;37948;53.260;6.394;2023-04-09T09:00:03;35.22;;;22.17;;
51921;SDS011;37948;53.260;6.394;2023-04-09T09:02:29;36.20;;;21.75;;
51921;SDS011;37948;53.260;6.394;2023-04-09T09:04:55;36.60;;;21.85;;
51921;SDS011;37948;53.260;6.394;2023-04-09T09:07:24;38.13;;;21.73;;
51921;SDS011;37948;53.260;6.394;2023-04-09T09:09:58;32.55;;;20.35;;
51921;SDS011;37948;53.260;6.394;2023-04-09T09:15:00;34.05;;;20.55;;
51921;SDS011;37948;53.260;6.394;2023-04-09T09:17:26;30.92;;;19.50;;
51921;SDS011;37948;53.260;6.394;2023-04-09T09:19:51;37.63;;;22.75;;
51921;SDS011;37948;53.260;6.394;2023-04-09T09:22:17;35.33;;;22.38;;
51921;SDS011;37948;53.260;6.394;2023-04-09T09:24:46;35.85;;;21.00;;
51921;SDS011;37948;53.260;6.394;2023-04-09T09:30:00;34.13;;;22.25;;
51921;SDS011;37948;53.260;6.394;2023-04-09T09:32:32;35.42;;;22.13;;
51921;SDS011;37948;53.260;6.394;2023-04-09T09:35:05;30.63;;;21.10;;
51921;SDS011;37948;53.260;6.394;2023-04-09T09:37:32;32.08;;;20.75;;
51921;SDS011;37948;53.260;6.394;2023-04-09T09:39:58;33.65;;;21.98;;
51921;SDS011;37948;53.260;6.394;2023-04-09T09:42:24;34.22;;;21.20;;
51921;SDS011;37948;53.260;6.394;2023-04-09T09:44:51;30.77;;;20.10;;
51921;SDS011;37948;53.260;6.394;2023-04-09T09:47:18;31.65;;;21.00;;
51921;SDS011;37948;53.260;6.394;2023-04-09T09:49:46;31.35;;;21.02;;
51921;SDS011;37948;53.260;6.394;2023-04-09T09:52:17;31.15;;;20.70;;
51921;SDS011;37948;53.260;6.394;2023-04-09T09:54:49;33.45;;;21.23;;
51921;SDS011;37948;53.260;6.394;2023-04-09T09:57:19;30.30;;;20.77;;
51921;SDS011;37948;53.260;6.394;2023-04-09T09:59:57;30.80;;;20.95;;
51921;SDS011;37948;53.260;6.394;2023-04-09T10:02:26;30.13;;;20.63;;
51921;SDS011;37948;53.260;6.394;2023-04-09T10:04:55;30.58;;;20.10;;
51921;SDS011;37948;53.260;6.394;2023-04-09T10:07:24;28.15;;;19.85;;
51921;SDS011;37948;53.260;6.394;2023-04-09T10:09:51;31.65;;;21.38;;
51921;SDS011;37948;53.260;6.394;2023-04-09T10:12:21;34.20;;;21.67;;
51921;SDS011;37948;53.260;6.394;2023-04-09T10:14:50;33.28;;;21.30;;
51921;SDS011;37948;53.260;6.394;2023-04-09T10:17:19;31.15;;;19.80;;
51921;SDS011;37948;53.260;6.394;2023-04-09T10:23:02;31.30;;;20.10;;
51921;SDS011;37948;53.260;6.394;2023-04-09T10:25:34;29.98;;;20.58;;
51921;SDS011;37948;53.260;6.394;2023-04-09T10:28:00;30.85;;;20.80;;
51921;SDS011;37948;53.260;6.394;2023-04-09T10:30:35;31.38;;;19.95;;
51921;SDS011;37948;53.260;6.394;2023-04-09T10:33:35;29.60;;;20.63;;
51921;SDS011;37948;53.260;6.394;2023-04-09T10:35:54;38.35;;;23.42;;
51921;SDS011;37948;53.260;6.394;2023-04-09T10:38:33;30.50;;;20.85;;
51921;SDS011;37948;53.260;6.394;2023-04-09T10:41:21;31.13;;;19.52;;
51921;SDS011;37948;53.260;6.394;2023-04-09T10:43:51;29.25;;;20.85;;
51921;SDS011;37948;53.260;6.394;2023-04-09T10:46:27;33.88;;;22.20;;
51921;SDS011;37948;53.260;6.394;2023-04-09T10:49:17;29.23;;;21.92;;
51921;SDS011;37948;53.260;6.394;2023-04-09T10:51:51;33.05;;;22.23;;
51921;SDS011;37948;53.260;6.394;2023-04-09T10:57:17;28.73;;;19.50;;
51921;SDS011;37948;53.260;6.394;2023-04-09T10:59:54;31.50;;;21.05;;
51921;SDS011;37948;53.260;6.394;2023-04-09T11:02:30;27.30;;;19.67;;
51921;SDS011;37948;53.260;6.394;2023-04-09T11:10:28;31.48;;;20.13;;
51921;SDS011;37948;53.260;6.394;2023-04-09T11:12:55;26.42;;;18.33;;
51921;SDS011;37948;53.260;6.394;2023-04-09T11:15:20;28.63;;;18.90;;
51921;SDS011;37948;53.260;6.394;2023-04-09T11:17:46;29.63;;;18.83;;
51921;SDS011;37948;53.260;6.394;2023-04-09T11:20:13;30.38;;;20.05;;
51921;SDS011;37948;53.260;6.394;2023-04-09T11:22:46;27.60;;;19.05;;
51921;SDS011;37948;53.260;6.394;2023-04-09T11:25:20;32.25;;;20.27;;
51921;SDS011;37948;53.260;6.394;2023-04-09T11:27:48;31.60;;;21.05;;
51921;SDS011;37948;53.260;6.394;2023-04-09T11:30:15;31.42;;;20.27;;
51921;SDS011;37948;53.260;6.394;2023-04-09T11:32:40;27.33;;;19.25;;
51921;SDS011;37948;53.260;6.394;2023-04-09T11:35:09;26.40;;;19.77;;
51921;SDS011;37948;53.260;6.394;2023-04-09T11:37:40;28.05;;;19.17;;
51921;SDS011;37948;53.260;6.394;2023-04-09T11:40:07;26.58;;;19.05;;
51921;SDS011;37948;53.260;6.394;2023-04-09T11:42:49;29.95;;;19.67;;
51921;SDS011;37948;53.260;6.394;2023-04-09T11:45:17;24.98;;;18.75;;
51921;SDS011;37948;53.260;6.394;2023-04-09T11:47:44;26.30;;;19.08;;
51921;SDS011;37948;53.260;6.394;2023-04-09T11:50:11;24.80;;;17.40;;
51921;SDS011;37948;53.260;6.394;2023-04-09T11:52:38;27.52;;;19.55;;
51921;SDS011;37948;53.260;6.394;2023-04-09T11:55:05;25.80;;;17.90;;
51921;SDS011;37948;53.260;6.394;2023-04-09T11:57:42;25.95;;;18.42;;
51921;SDS011;37948;53.260;6.394;2023-04-09T12:00:13;25.70;;;18.33;;
51921;SDS011;37948;53.260;6.394;2023-04-09T12:02:41;32.30;;;17.92;;
51921;SDS011;37948;53.260;6.394;2023-04-09T12:05:27;26.45;;;17.38;;
51921;SDS011;37948;53.260;6.394;2023-04-09T12:07:57;25.63;;;17.75;;
51921;SDS011;37948;53.260;6.394;2023-04-09T12:10:28;25.25;;;18.08;;
51921;SDS011;37948;53.260;6.394;2023-04-09T12:13:03;25.58;;;17.73;;
51921;SDS011;37948;53.260;6.394;2023-04-09T12:15:32;25.00;;;17.92;;
51921;SDS011;37948;53.260;6.394;2023-04-09T12:17:59;35.03;;;19.77;;
51921;SDS011;37948;53.260;6.394;2023-04-09T12:20:28;47.50;;;28.25;;
51921;SDS011;37948;53.260;6.394;2023-04-09T12:22:55;37.67;;;24.10;;
51921;SDS011;37948;53.260;6.394;2023-04-09T12:25:22;39.75;;;19.95;;
51921;SDS011;37948;53.260;6.394;2023-04-09T12:27:48;40.25;;;19.30;;
51921;SDS011;37948;53.260;6.394;2023-04-09T12:30:13;46.88;;;18.55;;
51921;SDS011;37948;53.260;6.394;2023-04-09T12:32:39;36.33;;;19.38;;
51921;SDS011;37948;53.260;6.394;2023-04-09T12:35:06;29.02;;;16.55;;
51921;SDS011;37948;53.260;6.394;2023-04-09T12:37:32;32.88;;;17.80;;
51921;SDS011;37948;53.260;6.394;2023-04-09T12:39:58;38.00;;;18.67;;
51921;SDS011;37948;53.260;6.394;2023-04-09T12:42:24;41.42;;;17.70;;
51921;SDS011;37948;53.260;6.394;2023-04-09T12:44:49;31.17;;;17.60;;
51921;SDS011;37948;53.260;6.394;2023-04-09T12:47:15;22.77;;;16.08;;
51921;SDS011;37948;53.260;6.394;2023-04-09T12:49:43;31.65;;;15.55;;
51921;SDS011;37948;53.260;6.394;2023-04-09T12:52:10;106.90;;;22.25;;
51921;SDS011;37948;53.260;6.394;2023-04-09T12:54:36;38.67;;;16.77;;
51921;SDS011;37948;53.260;6.394;2023-04-09T12:57:04;23.13;;;15.68;;
51921;SDS011;37948;53.260;6.394;2023-04-09T12:59:30;28.77;;;16.98;;
51921;SDS011;37948;53.260;6.394;2023-04-09T13:01:55;21.23;;;15.35;;
51921;SDS011;37948;53.260;6.394;2023-04-09T13:04:21;21.90;;;15.93;;
51921;SDS011;37948;53.260;6.394;2023-04-09T13:06:47;20.58;;;15.32;;
51921;SDS011;37948;53.260;6.394;2023-04-09T13:09:12;19.45;;;14.32;;
51921;SDS011;37948;53.260;6.394;2023-04-09T13:11:38;21.73;;;15.32;;
51921;SDS011;37948;53.260;6.394;2023-04-09T13:14:04;22.50;;;15.18;;
51921;SDS011;37948;53.260;6.394;2023-04-09T13:16:30;23.70;;;15.25;;
51921;SDS011;37948;53.260;6.394;2023-04-09T13:18:56;84.05;;;26.90;;
51921;SDS011;37948;53.260;6.394;2023-04-09T13:21:22;43.13;;;19.35;;
51921;SDS011;37948;53.260;6.394;2023-04-09T13:23:49;87.70;;;24.48;;
51921;SDS011;37948;53.260;6.394;2023-04-09T13:26:15;53.67;;;20.35;;
51921;SDS011;37948;53.260;6.394;2023-04-09T13:28:41;60.60;;;20.40;;
51921;SDS011;37948;53.260;6.394;2023-04-09T13:31:06;62.47;;;21.42;;
51921;SDS011;37948;53.260;6.394;2023-04-09T13:33:32;44.80;;;18.35;;
51921;SDS011;37948;53.260;6.394;2023-04-09T13:35:57;28.45;;;15.48;;
51921;SDS011;37948;53.260;6.394;2023-04-09T13:38:23;29.10;;;15.32;;
51921;SDS011;37948;53.260;6.394;2023-04-09T13:40:48;25.33;;;15.43;;
51921;SDS011;37948;53.260;6.394;2023-04-09T13:43:14;22.38;;;15.77;;
51921;SDS011;37948;53.260;6.394;2023-04-09T13:45:40;22.45;;;15.48;;
51921;SDS011;37948;53.260;6.394;2023-04-09T13:48:05;19.48;;;14.90;;
51921;SDS011;37948;53.260;6.394;2023-04-09T13:50:31;23.10;;;14.50;;
51921;SDS011;37948;53.260;6.394;2023-04-09T13:52:57;18.83;;;14.00;;
51921;SDS011;37948;53.260;6.394;2023-04-09T13:55:22;22.98;;;15.88;;
51921;SDS011;37948;53.260;6.394;2023-04-09T13:57:48;19.15;;;14.35;;
51921;SDS011;37948;53.260;6.394;2023-04-09T14:00:14;19.40;;;14.27;;
51921;SDS011;37948;53.260;6.394;2023-04-09T14:02:39;18.27;;;13.77;;
51921;SDS011;37948;53.260;6.394;2023-04-09T14:05:05;16.80;;;12.65;;
51921;SDS011;37948;53.260;6.394;2023-04-09T14:07:31;19.27;;;13.52;;
51921;SDS011;37948;53.260;6.394;2023-04-09T14:09:57;16.92;;;13.13;;
51921;SDS011;37948;53.260;6.394;2023-04-09T14:12:22;19.40;;;13.68;;
51921;SDS011;37948;53.260;6.394;2023-04-09T14:14:48;17.85;;;13.57;;
51921;SDS011;37948;53.260;6.394;2023-04-09T14:17:14;17.77;;;13.30;;
51921;SDS011;37948;53.260;6.394;2023-04-09T14:19:40;17.48;;;13.60;;
51921;SDS011;37948;53.260;6.394;2023-04-09T14:22:05;18.42;;;13.20;;
51921;SDS011;37948;53.260;6.394;2023-04-09T14:24:32;16.05;;;12.45;;
51921;SDS011;37948;53.260;6.394;2023-04-09T14:27:04;17.45;;;12.85;;
51921;SDS011;37948;53.260;6.394;2023-04-09T14:29:30;17.60;;;13.50;;
51921;SDS011;37948;53.260;6.394;2023-04-09T14:31:55;17.75;;;13.60;;
51921;SDS011;37948;53.260;6.394;2023-04-09T14:34:21;17.08;;;13.00;;
51921;SDS011;37948;53.260;6.394;2023-04-09T14:36:47;18.30;;;12.98;;
51921;SDS011;37948;53.260;6.394;2023-04-09T14:39:12;19.25;;;13.40;;
51921;SDS011;37948;53.260;6.394;2023-04-09T14:41:38;18.50;;;13.50;;